KSPG/SPG METAR and TAF weather

Enter ICAO airport designator
Station Type Date Time Source
KSPG METAR 2019/05/26 23:53 UTC NOAA

KSPG 262353Z 35007KT 10SM CLR 30/24 A3003 RMK AO2 SLP170 6//// T03000239 10322 20289 55002 PNO $


Station Type Date Time Source
KSPG Decoded METAR 2019/05/26 23:53 UTC NOAA

ST PETERSBURG WHITTED AIRPORT , FL, United States (KSPG) 27-46N 082-38W 2M
May 26, 2019 - 07:53 PM EDT / 2019.05.26 2353 UTC
Wind: from the N (350 degrees) at 8 MPH (7 KT):0
Visibility: 10 mile(s):0
Sky conditions: clear
Temperature: 86.0 F (30.0 C)
Heat index: 94.6 F (34.8 C):1
Dew Point: 75.0 F (23.9 C)
Relative Humidity: 69%
Pressure (altimeter): 30.03 in. Hg (1016 hPa)
Pressure tendency: 0.01 inches (0.2 hPa) lower than three hours ago
ob: KSPG 262353Z 35007KT 10SM CLR 30/24 A3003 RMK AO2 SLP170 6//// T03000239 10322 20289 55002 PNO
cycle: 0

Station Type Date Time Source
KSPG TAF UTC NOAA

Error!

Example: see airport list